Time;durP1;ratioP1;P1;durP2;ratioP2;P2;SDS_P1;SDS_P2;PMS_P1;PMS_P2;Temp;Humidity;BMP_temperature;BMP_pressure;BME280_temperature;BME280_humidity;BME280_pressure;Samples;Min_cycle;Max_cycle;Signal;HPM_P1;HPM_P2
2021/09/25 00:01:32;;;;;;;25.80;15.07;;;;;;;;;;5017538;28;20079;-62
2021/09/25 00:03:58;;;;;;;21.73;12.68;;;;;;;;;;5016078;28;20079;-55
2021/09/25 00:06:25;;;;;;;29.65;16.55;;;;;;;;;;5017982;28;20532;-57
2021/09/25 00:08:52;;;;;;;18.60;11.23;;;;;;;;;;5018094;28;20108;-55
2021/09/25 00:11:18;;;;;;;22.25;15.15;;;;;;;;;;5018264;28;20477;-57
2021/09/25 00:13:44;;;;;;;37.20;22.75;;;;;;;;;;5018426;28;20218;-57
2021/09/25 00:16:11;;;;;;;42.10;25.05;;;;;;;;;;5018502;28;20029;-56
2021/09/25 00:18:37;;;;;;;30.63;17.67;;;;;;;;;;5017837;28;20053;-56
2021/09/25 00:21:04;;;;;;;16.83;9.88;;;;;;;;;;5018480;28;20033;-60
2021/09/25 00:23:30;;;;;;;29.85;19.83;;;;;;;;;;5017838;28;20045;-60
2021/09/25 00:25:58;;;;;;;46.67;26.75;;;;;;;;;;5018071;28;20037;-61
2021/09/25 00:28:24;;;;;;;20.63;11.65;;;;;;;;;;5017747;28;20025;-57
2021/09/25 00:30:50;;;;;;;46.85;26.80;;;;;;;;;;5017823;28;20555;-55
2021/09/25 00:33:17;;;;;;;14.95;9.02;;;;;;;;;;5018017;28;20041;-53
2021/09/25 00:35:45;;;;;;;33.15;18.40;;;;;;;;;;5018544;28;20029;-51
2021/09/25 00:38:13;;;;;;;22.83;13.23;;;;;;;;;;5018191;28;20021;-54
2021/09/25 00:40:39;;;;;;;33.83;18.95;;;;;;;;;;5018063;28;20026;-51
2021/09/25 00:43:05;;;;;;;23.20;12.77;;;;;;;;;;5017473;28;20519;-53
2021/09/25 00:45:32;;;;;;;20.35;12.93;;;;;;;;;;5017430;28;20021;-53
2021/09/25 00:47:58;;;;;;;21.27;12.70;;;;;;;;;;5018161;28;20032;-53
2021/09/25 00:50:26;;;;;;;21.42;11.43;;;;;;;;;;5017318;28;20482;-50
2021/09/25 00:52:54;;;;;;;29.65;18.33;;;;;;;;;;5017730;28;20021;-53
2021/09/25 00:55:23;;;;;;;30.67;18.17;;;;;;;;;;5017116;28;20039;-56
2021/09/25 00:57:53;;;;;;;31.05;17.73;;;;;;;;;;5017562;28;20450;-57
2021/09/25 01:00:19;;;;;;;58.40;32.53;;;;;;;;;;5017410;28;20064;-56
2021/09/25 01:02:46;;;;;;;37.42;24.20;;;;;;;;;;5017500;28;20068;-54
2021/09/25 01:05:15;;;;;;;33.17;19.10;;;;;;;;;;5017468;28;20072;-52
2021/09/25 01:07:46;;;;;;;52.42;28.52;;;;;;;;;;5017804;28;20037;-55
2021/09/25 01:10:12;;;;;;;25.33;15.65;;;;;;;;;;5017584;28;20075;-51
2021/09/25 01:12:38;;;;;;;25.63;15.35;;;;;;;;;;5017332;28;20025;-57
2021/09/25 01:15:06;;;;;;;36.95;20.15;;;;;;;;;;5017842;28;20509;-53
2021/09/25 01:17:32;;;;;;;34.22;21.10;;;;;;;;;;5017595;28;20026;-56
2021/09/25 01:20:00;;;;;;;20.80;11.20;;;;;;;;;;5017584;28;20037;-57
2021/09/25 01:22:26;;;;;;;21.98;12.85;;;;;;;;;;5017212;28;20072;-51
2021/09/25 01:24:52;;;;;;;23.73;14.20;;;;;;;;;;5017410;28;20485;-59
2021/09/25 01:27:18;;;;;;;35.70;17.88;;;;;;;;;;5017030;28;20123;-52
2021/09/25 01:29:45;;;;;;;37.65;22.58;;;;;;;;;;5017380;28;20572;-55
2021/09/25 01:32:11;;;;;;;40.72;23.45;;;;;;;;;;5017554;28;20029;-59
2021/09/25 01:34:38;;;;;;;33.38;18.90;;;;;;;;;;5017181;28;20123;-58
2021/09/25 01:37:04;;;;;;;28.73;15.55;;;;;;;;;;5017725;28;20021;-58
2021/09/25 01:39:33;;;;;;;23.83;15.18;;;;;;;;;;5017171;28;20061;-53
2021/09/25 01:42:00;;;;;;;27.17;16.58;;;;;;;;;;5017427;28;20021;-58
2021/09/25 01:44:26;;;;;;;18.02;10.57;;;;;;;;;;5017390;28;20097;-58
2021/09/25 01:46:56;;;;;;;18.65;11.93;;;;;;;;;;5017156;28;20122;-57
2021/09/25 01:49:23;;;;;;;13.75;10.05;;;;;;;;;;5017038;28;20113;-56
2021/09/25 01:51:49;;;;;;;14.90;10.00;;;;;;;;;;5020813;28;20025;-58
2021/09/25 01:54:15;;;;;;;16.17;11.20;;;;;;;;;;5020478;28;20036;-52
2021/09/25 01:56:44;;;;;;;19.13;12.23;;;;;;;;;;5021103;28;20029;-57
2021/09/25 01:59:11;;;;;;;19.83;10.70;;;;;;;;;;5020885;28;20109;-52
2021/09/25 02:01:39;;;;;;;42.17;23.60;;;;;;;;;;5021415;28;20040;-54
2021/09/25 02:04:06;;;;;;;23.65;14.00;;;;;;;;;;5020250;28;20044;-58
2021/09/25 02:06:32;;;;;;;20.63;12.88;;;;;;;;;;5020934;28;20107;-57
2021/09/25 02:08:58;;;;;;;22.52;12.35;;;;;;;;;;5020404;28;20053;-55
2021/09/25 02:11:24;;;;;;;22.40;12.07;;;;;;;;;;5020282;28;20049;-54
2021/09/25 02:13:51;;;;;;;47.05;22.55;;;;;;;;;;5020204;28;20051;-58
2021/09/25 02:16:17;;;;;;;38.95;20.92;;;;;;;;;;5020993;28;20029;-57
2021/09/25 02:18:43;;;;;;;45.22;23.75;;;;;;;;;;5020785;28;20028;-58
2021/09/25 02:21:10;;;;;;;19.85;11.60;;;;;;;;;;5019774;28;20117;-59
2021/09/25 02:23:36;;;;;;;17.13;11.02;;;;;;;;;;5020345;28;20049;-58
2021/09/25 02:26:03;;;;;;;15.75;10.52;;;;;;;;;;5019872;28;20069;-56
2021/09/25 02:28:29;;;;;;;21.20;12.43;;;;;;;;;;5020325;28;20959;-58
2021/09/25 02:30:56;;;;;;;23.95;12.63;;;;;;;;;;5020066;28;20033;-55
2021/09/25 02:33:22;;;;;;;23.05;14.73;;;;;;;;;;5020274;28;20075;-58
2021/09/25 02:35:49;;;;;;;14.75;10.68;;;;;;;;;;5050482;28;20029;-55
2021/09/25 02:38:16;;;;;;;19.48;10.90;;;;;;;;;;5054635;28;20021;-61
2021/09/25 02:40:42;;;;;;;20.60;10.68;;;;;;;;;;5055779;28;20020;-58
2021/09/25 02:43:08;;;;;;;27.63;15.05;;;;;;;;;;5055763;28;20465;-58
2021/09/25 02:45:34;;;;;;;23.10;13.57;;;;;;;;;;5055635;28;20029;-58
2021/09/25 02:48:01;;;;;;;20.20;10.50;;;;;;;;;;5055672;28;20026;-59
2021/09/25 02:50:27;;;;;;;13.65;9.15;;;;;;;;;;5055862;28;20031;-59
2021/09/25 02:52:53;;;;;;;18.85;11.23;;;;;;;;;;5055586;28;20444;-59
2021/09/25 02:55:20;;;;;;;18.10;9.65;;;;;;;;;;5055692;28;20070;-56
2021/09/25 02:57:46;;;;;;;18.13;9.45;;;;;;;;;;5055390;28;20021;-48
2021/09/25 03:00:16;;;;;;;20.58;10.65;;;;;;;;;;5055770;28;20051;-57
2021/09/25 03:02:42;;;;;;;17.42;10.52;;;;;;;;;;5054268;28;20041;-60
2021/09/25 03:05:09;;;;;;;23.85;13.93;;;;;;;;;;5055352;28;20032;-59
2021/09/25 03:07:35;;;;;;;20.45;11.93;;;;;;;;;;5055826;28;20041;-59
2021/09/25 03:10:01;;;;;;;24.30;10.65;;;;;;;;;;5055285;28;20025;-57
2021/09/25 03:12:29;;;;;;;23.33;10.75;;;;;;;;;;5055429;28;20021;-55
2021/09/25 03:14:56;;;;;;;31.38;14.98;;;;;;;;;;5055246;28;20017;-59
2021/09/25 03:17:24;;;;;;;27.38;11.13;;;;;;;;;;5055156;28;20025;-58
2021/09/25 03:19:50;;;;;;;20.13;11.25;;;;;;;;;;5055175;28;20028;-59
2021/09/25 03:22:16;;;;;;;23.98;11.77;;;;;;;;;;5055096;28;20025;-57
2021/09/25 03:24:43;;;;;;;22.00;10.70;;;;;;;;;;5054892;28;20084;-54
2021/09/25 03:27:09;;;;;;;22.83;11.20;;;;;;;;;;5054845;28;20037;-59
2021/09/25 03:29:35;;;;;;;16.95;10.65;;;;;;;;;;5054887;28;20070;-55
2021/09/25 03:32:01;;;;;;;27.13;16.23;;;;;;;;;;5054961;28;20037;-56
2021/09/25 03:34:28;;;;;;;18.23;11.57;;;;;;;;;;5054761;28;20028;-58
2021/09/25 03:36:54;;;;;;;20.10;12.73;;;;;;;;;;5054791;28;20109;-49
2021/09/25 03:39:20;;;;;;;23.98;12.57;;;;;;;;;;5054777;28;20086;-55
2021/09/25 03:41:46;;;;;;;32.72;17.63;;;;;;;;;;5054598;28;20021;-54
2021/09/25 03:44:12;;;;;;;52.83;26.02;;;;;;;;;;5054546;28;20024;-52
2021/09/25 03:46:38;;;;;;;41.40;23.58;;;;;;;;;;5054705;28;20496;-56
2021/09/25 03:49:04;;;;;;;22.90;12.95;;;;;;;;;;5054682;28;20384;-60
2021/09/25 03:51:31;;;;;;;20.10;11.35;;;;;;;;;;5054346;28;20021;-58
2021/09/25 03:53:57;;;;;;;22.83;14.18;;;;;;;;;;5054473;28;20021;-58
2021/09/25 03:56:23;;;;;;;27.33;16.60;;;;;;;;;;5054391;28;20032;-52
2021/09/25 03:58:50;;;;;;;38.50;22.80;;;;;;;;;;5054342;28;20028;-58
2021/09/25 04:01:16;;;;;;;26.73;16.55;;;;;;;;;;5054600;28;20025;-50
2021/09/25 04:03:43;;;;;;;23.75;12.55;;;;;;;;;;5054702;28;20384;-51
2021/09/25 04:06:09;;;;;;;25.40;15.63;;;;;;;;;;5054011;28;20075;-55
2021/09/25 04:08:35;;;;;;;45.38;24.08;;;;;;;;;;5054263;28;20530;-53
2021/09/25 04:11:01;;;;;;;51.88;30.35;;;;;;;;;;5054270;28;20381;-51
2021/09/25 04:13:27;;;;;;;32.67;19.13;;;;;;;;;;5053726;28;20618;-54
2021/09/25 04:15:53;;;;;;;43.58;22.02;;;;;;;;;;5054243;28;20422;-52
2021/09/25 04:18:19;;;;;;;18.45;10.70;;;;;;;;;;5053970;28;20024;-53
2021/09/25 04:20:48;;;;;;;21.45;12.80;;;;;;;;;;5053984;28;20075;-52
2021/09/25 04:23:16;;;;;;;43.15;22.17;;;;;;;;;;5053683;28;20550;-55
2021/09/25 04:25:42;;;;;;;44.13;23.20;;;;;;;;;;5054315;28;20047;-54
2021/09/25 04:28:09;;;;;;;34.38;21.02;;;;;;;;;;5053930;28;20493;-57
2021/09/25 04:30:40;;;;;;;36.30;20.50;;;;;;;;;;5053832;28;20399;-54
2021/09/25 04:33:07;;;;;;;52.13;27.93;;;;;;;;;;5053769;28;20028;-56
2021/09/25 04:35:33;;;;;;;44.90;24.42;;;;;;;;;;5053706;28;20385;-58
2021/09/25 04:37:59;;;;;;;21.50;12.43;;;;;;;;;;5053709;28;20041;-54
2021/09/25 04:40:26;;;;;;;40.00;23.33;;;;;;;;;;5053751;28;20079;-55
2021/09/25 04:42:52;;;;;;;20.58;12.30;;;;;;;;;;5053559;28;20428;-53
2021/09/25 04:45:18;;;;;;;31.48;17.52;;;;;;;;;;5053636;28;20032;-55
2021/09/25 04:47:45;;;;;;;16.35;11.10;;;;;;;;;;5053393;28;20025;-53
2021/09/25 04:50:12;;;;;;;24.38;13.57;;;;;;;;;;5053512;28;20486;-53
2021/09/25 04:52:38;;;;;;;16.83;9.82;;;;;;;;;;5053592;28;20032;-54
2021/09/25 04:55:09;;;;;;;17.80;10.00;;;;;;;;;;5053460;28;20503;-55
2021/09/25 04:57:35;;;;;;;19.65;12.45;;;;;;;;;;5053496;28;20060;-57
2021/09/25 05:00:02;;;;;;;24.80;13.77;;;;;;;;;;5053289;28;20029;-57
2021/09/25 05:02:28;;;;;;;18.20;9.77;;;;;;;;;;5053619;28;20075;-57
2021/09/25 05:04:54;;;;;;;18.25;10.77;;;;;;;;;;5051947;28;20516;-54
2021/09/25 05:07:20;;;;;;;14.93;8.05;;;;;;;;;;5053307;28;20048;-57
2021/09/25 05:09:48;;;;;;;16.98;10.63;;;;;;;;;;5053299;28;20018;-57
2021/09/25 05:12:14;;;;;;;18.55;9.45;;;;;;;;;;5053102;28;20401;-57
2021/09/25 05:14:41;;;;;;;15.63;9.52;;;;;;;;;;5053347;28;20385;-53
2021/09/25 05:17:07;;;;;;;20.55;10.65;;;;;;;;;;5053214;28;20025;-54
2021/09/25 05:19:33;;;;;;;18.65;8.85;;;;;;;;;;5053030;28;20049;-57
2021/09/25 05:21:59;;;;;;;12.88;8.77;;;;;;;;;;5053523;28;20128;-57
2021/09/25 05:24:26;;;;;;;10.98;8.25;;;;;;;;;;5052877;28;20044;-57
2021/09/25 05:26:52;;;;;;;13.18;8.15;;;;;;;;;;5056451;28;20033;-56
2021/09/25 05:29:18;;;;;;;10.57;8.00;;;;;;;;;;5057019;28;20021;-54
2021/09/25 05:31:44;;;;;;;13.57;8.63;;;;;;;;;;5056939;28;20108;-53
2021/09/25 05:34:10;;;;;;;14.40;7.88;;;;;;;;;;5056910;28;20033;-52
2021/09/25 05:36:36;;;;;;;11.55;7.57;;;;;;;;;;5056862;28;20029;-54
2021/09/25 05:39:04;;;;;;;11.27;7.20;;;;;;;;;;5056901;28;20078;-57
2021/09/25 05:41:30;;;;;;;14.88;8.00;;;;;;;;;;5056899;28;20473;-55
2021/09/25 05:43:56;;;;;;;12.82;8.00;;;;;;;;;;5056924;28;20029;-51
2021/09/25 05:46:22;;;;;;;14.18;9.23;;;;;;;;;;5056617;28;20039;-54
2021/09/25 05:48:51;;;;;;;10.40;7.35;;;;;;;;;;5056854;28;20017;-57
2021/09/25 05:51:18;;;;;;;14.68;8.05;;;;;;;;;;5056641;28;20052;-55
2021/09/25 05:53:44;;;;;;;14.75;8.13;;;;;;;;;;5057108;28;20032;-56
2021/09/25 05:56:10;;;;;;;19.13;10.02;;;;;;;;;;5055293;28;20443;-57
2021/09/25 05:58:36;;;;;;;17.05;9.95;;;;;;;;;;5056775;28;20060;-58
2021/09/25 06:01:02;;;;;;;19.33;10.60;;;;;;;;;;5056325;28;20071;-53
2021/09/25 06:03:29;;;;;;;11.27;8.13;;;;;;;;;;5056293;28;20021;-55
2021/09/25 06:05:55;;;;;;;9.43;6.95;;;;;;;;;;5055810;28;20039;-53
2021/09/25 06:08:21;;;;;;;9.25;6.22;;;;;;;;;;5055753;28;20477;-51
2021/09/25 06:10:47;;;;;;;7.90;6.70;;;;;;;;;;5055981;28;20021;-56
2021/09/25 06:13:13;;;;;;;8.05;6.40;;;;;;;;;;5055958;28;20029;-47
2021/09/25 06:15:39;;;;;;;11.88;6.13;;;;;;;;;;5055883;28;20017;-49
2021/09/25 06:18:05;;;;;;;7.97;5.55;;;;;;;;;;5055739;28;20438;-51
2021/09/25 06:20:32;;;;;;;8.70;6.95;;;;;;;;;;5055511;28;20009;-45
2021/09/25 06:22:58;;;;;;;24.05;12.18;;;;;;;;;;5044031;28;20369;-51
2021/09/25 06:25:24;;;;;;;20.30;12.75;;;;;;;;;;5035881;28;20572;-51
2021/09/25 06:27:50;;;;;;;18.73;11.52;;;;;;;;;;5035990;28;20037;-46
2021/09/25 06:30:16;;;;;;;19.60;9.13;;;;;;;;;;5044147;28;20015;-52
2021/09/25 06:32:43;;;;;;;18.25;9.93;;;;;;;;;;5055540;28;20506;-57
2021/09/25 06:35:10;;;;;;;16.38;9.48;;;;;;;;;;5055618;28;20112;-57
2021/09/25 06:37:37;;;;;;;12.48;8.75;;;;;;;;;;5056063;28;20096;-56
2021/09/25 06:40:04;;;;;;;9.88;8.05;;;;;;;;;;5055932;28;20028;-56
2021/09/25 06:42:30;;;;;;;7.95;6.15;;;;;;;;;;5055620;28;20029;-55
2021/09/25 06:44:56;;;;;;;10.05;6.95;;;;;;;;;;5055714;28;20025;-56
2021/09/25 06:47:22;;;;;;;14.30;10.25;;;;;;;;;;5039809;28;20188;-54
2021/09/25 06:49:48;;;;;;;11.07;9.57;;;;;;;;;;5024229;28;20064;-53
2021/09/25 06:52:14;;;;;;;8.93;7.93;;;;;;;;;;5023985;28;20480;-53
2021/09/25 06:54:40;;;;;;;19.13;12.18;;;;;;;;;;5023438;28;20450;-52
2021/09/25 06:57:08;;;;;;;11.73;10.00;;;;;;;;;;5023139;28;20032;-53
2021/09/25 06:59:34;;;;;;;17.63;13.40;;;;;;;;;;5023134;28;20030;-50
2021/09/25 07:02:02;;;;;;;18.77;14.75;;;;;;;;;;5022858;28;20524;-50
2021/09/25 07:04:28;;;;;;;15.82;10.48;;;;;;;;;;5022965;28;20029;-52
2021/09/25 07:06:55;;;;;;;13.45;10.55;;;;;;;;;;5024305;28;20044;-56
2021/09/25 07:09:21;;;;;;;22.05;13.85;;;;;;;;;;5023436;28;20025;-52
2021/09/25 07:11:47;;;;;;;13.45;8.88;;;;;;;;;;5022921;28;20022;-56
2021/09/25 07:14:13;;;;;;;11.98;9.73;;;;;;;;;;5022692;28;20040;-56
2021/09/25 07:16:39;;;;;;;10.35;6.53;;;;;;;;;;5022825;28;20065;-50
2021/09/25 07:19:05;;;;;;;13.05;9.52;;;;;;;;;;5023906;28;20021;-54
2021/09/25 07:21:32;;;;;;;15.80;7.82;;;;;;;;;;5022546;28;20029;-58
2021/09/25 07:23:58;;;;;;;15.60;9.05;;;;;;;;;;5022729;28;20387;-53
2021/09/25 07:26:24;;;;;;;14.95;8.70;;;;;;;;;;5022502;28;20030;-55
2021/09/25 07:28:50;;;;;;;16.77;10.75;;;;;;;;;;5022723;28;20030;-56
2021/09/25 07:31:17;;;;;;;15.45;9.77;;;;;;;;;;5022412;28;20034;-57
2021/09/25 07:33:43;;;;;;;13.80;8.18;;;;;;;;;;5022232;28;20033;-52
2021/09/25 07:36:09;;;;;;;14.05;8.43;;;;;;;;;;5023764;28;20126;-53
2021/09/25 07:38:36;;;;;;;14.93;9.07;;;;;;;;;;5022133;28;20091;-53
2021/09/25 07:41:02;;;;;;;14.40;8.48;;;;;;;;;;5023197;28;20424;-57
2021/09/25 07:43:29;;;;;;;8.30;5.20;;;;;;;;;;5022263;28;20037;-54
2021/09/25 07:45:55;;;;;;;13.10;6.80;;;;;;;;;;5022109;28;20033;-57
2021/09/25 07:48:21;;;;;;;16.77;11.68;;;;;;;;;;5020995;28;20538;-56
2021/09/25 07:50:48;;;;;;;8.10;6.03;;;;;;;;;;5022047;28;20025;-55
2021/09/25 07:53:14;;;;;;;9.85;7.18;;;;;;;;;;5022385;28;20029;-56
2021/09/25 07:55:40;;;;;;;15.82;8.52;;;;;;;;;;5021795;28;20447;-56
2021/09/25 07:58:06;;;;;;;19.80;9.43;;;;;;;;;;5021602;28;20031;-57
2021/09/25 08:00:32;;;;;;;13.40;6.68;;;;;;;;;;5022226;28;20705;-55
2021/09/25 08:02:59;;;;;;;10.68;7.68;;;;;;;;;;5021860;28;20440;-57
2021/09/25 08:05:25;;;;;;;19.88;13.68;;;;;;;;;;5021852;28;20071;-57
2021/09/25 08:07:51;;;;;;;21.70;13.25;;;;;;;;;;5021593;28;20057;-55
2021/09/25 08:10:17;;;;;;;26.73;16.10;;;;;;;;;;5021623;28;20045;-53
2021/09/25 08:12:44;;;;;;;55.88;32.75;;;;;;;;;;5021554;28;20068;-50
2021/09/25 08:15:11;;;;;;;21.60;12.18;;;;;;;;;;5021755;28;20071;-53
2021/09/25 08:17:38;;;;;;;16.60;10.23;;;;;;;;;;5021395;28;20438;-52
2021/09/25 08:20:06;;;;;;;60.03;36.63;;;;;;;;;;5021226;28;20036;-50
2021/09/25 08:22:32;;;;;;;70.80;43.95;;;;;;;;;;5021410;28;20075;-51
2021/09/25 08:24:58;;;;;;;70.38;44.88;;;;;;;;;;5021150;28;20045;-48
2021/09/25 08:27:24;;;;;;;20.98;12.07;;;;;;;;;;5022115;28;20038;-54
2021/09/25 08:29:50;;;;;;;43.72;29.58;;;;;;;;;;5021151;28;20600;-48
2021/09/25 08:32:16;;;;;;;14.18;9.43;;;;;;;;;;5022323;28;20030;-52
2021/09/25 08:34:43;;;;;;;9.27;6.50;;;;;;;;;;5021250;28;20346;-51
2021/09/25 08:37:10;;;;;;;86.55;55.28;;;;;;;;;;5021711;28;20430;-54
2021/09/25 08:39:37;;;;;;;24.23;14.80;;;;;;;;;;5021113;28;20108;-52
2021/09/25 08:42:03;;;;;;;27.23;18.30;;;;;;;;;;5021339;28;20053;-63
2021/09/25 08:44:30;;;;;;;167.23;133.35;;;;;;;;;;5021385;28;20385;-67
2021/09/25 08:46:57;;;;;;;42.97;28.02;;;;;;;;;;5020898;28;20033;-58
2021/09/25 08:49:23;;;;;;;104.40;73.55;;;;;;;;;;5022356;28;20033;-52
2021/09/25 08:51:49;;;;;;;68.10;50.38;;;;;;;;;;5021555;28;20029;-55
2021/09/25 08:54:16;;;;;;;69.90;48.40;;;;;;;;;;5021101;28;20027;-53
2021/09/25 08:56:42;;;;;;;164.35;132.18;;;;;;;;;;5021174;28;20362;-52
2021/09/25 08:59:08;;;;;;;60.15;36.40;;;;;;;;;;5020879;28;20039;-49
2021/09/25 09:01:34;;;;;;;68.15;42.88;;;;;;;;;;5021956;28;20025;-53
2021/09/25 09:04:02;;;;;;;29.60;21.08;;;;;;;;;;5020696;28;20339;-54
2021/09/25 09:06:30;;;;;;;57.97;42.17;;;;;;;;;;5020809;28;20414;-60
2021/09/25 09:08:59;;;;;;;33.20;21.83;;;;;;;;;;5021975;28;20022;-63
2021/09/25 09:11:25;;;;;;;34.85;24.20;;;;;;;;;;5021316;28;20358;-55
2021/09/25 09:13:53;;;;;;;18.05;12.38;;;;;;;;;;5020868;28;20048;-50
2021/09/25 09:16:19;;;;;;;52.58;27.55;;;;;;;;;;5020816;28;20104;-53
2021/09/25 09:18:47;;;;;;;30.05;20.17;;;;;;;;;;5020938;28;20739;-53
2021/09/25 09:21:16;;;;;;;38.67;20.33;;;;;;;;;;5020881;28;20025;-53
2021/09/25 09:23:48;;;;;;;59.17;34.03;;;;;;;;;;5021395;28;20440;-45
2021/09/25 09:26:16;;;;;;;14.52;11.68;;;;;;;;;;5020714;28;20037;-57
2021/09/25 09:28:43;;;;;;;59.60;37.80;;;;;;;;;;5020755;28;20034;-53
2021/09/25 09:31:09;;;;;;;23.30;13.63;;;;;;;;;;5020563;28;20308;-48
2021/09/25 09:33:38;;;;;;;52.55;41.90;;;;;;;;;;5021563;28;20440;-47
2021/09/25 09:36:14;;;;;;;122.45;67.95;;;;;;;;;;5021868;28;20382;-50
2021/09/25 09:38:41;;;;;;;179.05;96.57;;;;;;;;;;5021284;28;20032;-56
2021/09/25 09:41:09;;;;;;;56.83;37.13;;;;;;;;;;5020464;28;20112;-46
2021/09/25 09:43:37;;;;;;;61.65;34.95;;;;;;;;;;5021093;28;20710;-55
2021/09/25 09:46:03;;;;;;;17.95;12.15;;;;;;;;;;5020735;28;20603;-56
2021/09/25 09:48:29;;;;;;;18.38;9.13;;;;;;;;;;5021033;28;20060;-47
2021/09/25 09:50:58;;;;;;;18.83;9.70;;;;;;;;;;5020741;28;20029;-51
2021/09/25 09:53:24;;;;;;;34.10;18.10;;;;;;;;;;5020720;28;20786;-57
2021/09/25 09:55:50;;;;;;;106.85;61.85;;;;;;;;;;5021005;28;20039;-58
2021/09/25 09:58:17;;;;;;;28.42;17.88;;;;;;;;;;5023246;28;20068;-54
2021/09/25 10:00:43;;;;;;;34.45;21.63;;;;;;;;;;5021334;28;20026;-55
2021/09/25 10:03:11;;;;;;;51.90;29.20;;;;;;;;;;5020998;28;20040;-54
2021/09/25 10:05:38;;;;;;;34.58;21.92;;;;;;;;;;5021102;28;20029;-55
2021/09/25 10:08:05;;;;;;;24.40;15.07;;;;;;;;;;5023299;28;20838;-57
2021/09/25 10:10:31;;;;;;;12.32;8.02;;;;;;;;;;5021117;28;20025;-57
2021/09/25 10:12:58;;;;;;;19.55;12.32;;;;;;;;;;5026038;28;20527;-57
2021/09/25 10:15:24;;;;;;;12.82;9.13;;;;;;;;;;5024508;28;20045;-56
2021/09/25 10:17:50;;;;;;;6.63;4.03;;;;;;;;;;5025089;28;20425;-60
2021/09/25 10:20:17;;;;;;;11.30;6.35;;;;;;;;;;5024501;28;20524;-57
2021/09/25 10:22:45;;;;;;;15.57;4.65;;;;;;;;;;5024174;28;20053;-56
2021/09/25 10:25:12;;;;;;;6.50;3.35;;;;;;;;;;5024252;28;20562;-51
2021/09/25 10:27:40;;;;;;;4.35;2.22;;;;;;;;;;5024559;28;20045;-51
2021/09/25 10:30:10;;;;;;;3.95;2.40;;;;;;;;;;5025083;28;20028;-56
2021/09/25 10:32:37;;;;;;;;;;;;;;;;;;5024235;28;20054;-53
2021/09/25 10:35:12;;;;;;;5.00;2.70;;;;;;;;;;5024253;28;19920;-53
2021/09/25 10:37:39;;;;;;;7.22;3.80;;;;;;;;;;5025219;28;20025;-55
2021/09/25 10:40:06;;;;;;;12.63;5.53;;;;;;;;;;5023700;28;20028;-52
2021/09/25 10:42:52;;;;;;;11.30;5.20;;;;;;;;;;5024002;28;20025;-56
2021/09/25 10:45:22;;;;;;;9.27;3.45;;;;;;;;;;5024067;28;20473;-56
2021/09/25 10:48:03;;;;;;;11.70;5.03;;;;;;;;;;5023764;28;20057;-55
2021/09/25 10:50:29;;;;;;;6.55;3.10;;;;;;;;;;5024658;28;20084;-55
2021/09/25 10:53:09;;;;;;;5.70;3.22;;;;;;;;;;5034085;28;20038;-56
2021/09/25 10:55:36;;;;;;;8.27;4.63;;;;;;;;;;5024566;28;20033;-53
2021/09/25 10:58:21;;;;;;;9.40;4.18;;;;;;;;;;5024452;28;20029;-53
2021/09/25 11:01:02;;;;;;;8.25;3.95;;;;;;;;;;5024732;28;20029;-55
2021/09/25 11:03:47;;;;;;;7.10;3.00;;;;;;;;;;5024918;28;20040;-54
2021/09/25 11:06:13;;;;;;;5.57;2.90;;;;;;;;;;5024731;28;20032;-54
2021/09/25 11:08:47;;;;;;;12.63;3.58;;;;;;;;;;5023447;28;20107;-55
2021/09/25 11:11:14;;;;;;;9.10;4.05;;;;;;;;;;5023259;28;20030;-55
2021/09/25 11:13:59;;;;;;;3.33;2.63;;;;;;;;;;5023405;28;20029;-56
2021/09/25 11:16:43;;;;;;;4.13;2.55;;;;;;;;;;5024414;28;20021;-56
2021/09/25 11:19:10;;;;;;;11.98;2.88;;;;;;;;;;5024579;28;20086;-55
2021/09/25 11:21:36;;;;;;;5.78;2.13;;;;;;;;;;5023044;28;20025;-56
2021/09/25 11:24:02;;;;;;;4.35;2.63;;;;;;;;;;5021449;28;20382;-55
2021/09/25 11:26:28;;;;;;;9.85;4.00;;;;;;;;;;5022808;28;20028;-54
2021/09/25 11:29:14;;;;;;;37.33;28.38;;;;;;;;;;5022711;28;20539;-52
2021/09/25 11:31:41;;;;;;;8.73;4.97;;;;;;;;;;5022950;28;20017;-51
2021/09/25 11:34:21;;;;;;;63.00;34.05;;;;;;;;;;5022869;28;20032;-51
2021/09/25 11:36:51;;;;;;;11.93;9.45;;;;;;;;;;5023075;28;20036;-51
2021/09/25 11:39:21;;;;;;;61.28;39.88;;;;;;;;;;5022934;28;20769;-51
2021/09/25 11:42:07;;;;;;;65.50;42.60;;;;;;;;;;5022801;28;20459;-49
2021/09/25 11:44:53;;;;;;;39.65;25.67;;;;;;;;;;5022389;28;20074;-53
2021/09/25 11:47:30;;;;;;;49.92;35.45;;;;;;;;;;5022432;28;20033;-48
2021/09/25 11:49:57;;;;;;;11.10;6.90;;;;;;;;;;5022375;28;20029;-51
2021/09/25 11:52:24;;;;;;;41.35;25.23;;;;;;;;;;5023312;28;20025;-50
2021/09/25 11:54:50;;;;;;;24.27;13.18;;;;;;;;;;5023306;28;20330;-47
2021/09/25 11:57:25;;;;;;;9.98;7.40;;;;;;;;;;5022612;28;20104;-54
2021/09/25 11:59:53;;;;;;;11.57;5.88;;;;;;;;;;5023540;28;20511;-52
2021/09/25 12:02:38;;;;;;;6.85;5.25;;;;;;;;;;5022358;28;20033;-53
2021/09/25 12:05:05;;;;;;;18.63;9.20;;;;;;;;;;5021951;28;20022;-50
2021/09/25 12:07:41;;;;;;;29.73;21.45;;;;;;;;;;5022411;28;20042;-54
2021/09/25 12:10:07;;;;;;;46.65;34.97;;;;;;;;;;5023035;28;20985;-54
2021/09/25 12:12:34;;;;;;;22.08;16.02;;;;;;;;;;5022355;28;20083;-54
2021/09/25 12:15:00;;;;;;;45.63;26.80;;;;;;;;;;5022084;28;20022;-51
2021/09/25 12:17:26;;;;;;;20.15;13.48;;;;;;;;;;5022085;28;20099;-54
2021/09/25 12:19:52;;;;;;;16.98;10.95;;;;;;;;;;5024269;28;20021;-56
2021/09/25 12:22:24;;;;;;;43.75;29.08;;;;;;;;;;5032691;28;20164;-52
2021/09/25 12:24:50;;;;;;;55.20;34.35;;;;;;;;;;5033703;28;20516;-52
2021/09/25 12:27:28;;;;;;;12.27;8.10;;;;;;;;;;5033758;28;20037;-49
2021/09/25 12:29:54;;;;;;;12.27;4.88;;;;;;;;;;5034030;28;20049;-55
2021/09/25 12:32:23;;;;;;;8.48;6.68;;;;;;;;;;5034076;28;20028;-52
2021/09/25 12:34:50;;;;;;;19.42;12.93;;;;;;;;;;5033511;28;20021;-49
2021/09/25 12:37:16;;;;;;;10.75;7.55;;;;;;;;;;5033855;28;20065;-49
2021/09/25 12:39:47;;;;;;;16.17;10.05;;;;;;;;;;5033538;28;20029;-51
2021/09/25 12:42:34;;;;;;;10.13;7.80;;;;;;;;;;5038421;28;20400;-53
2021/09/25 12:45:00;;;;;;;20.00;10.55;;;;;;;;;;5023720;28;20034;-53
2021/09/25 12:47:33;;;;;;;11.90;7.85;;;;;;;;;;5020624;28;20065;-53
2021/09/25 12:50:14;;;;;;;107.78;68.07;;;;;;;;;;5021389;28;20021;-51
2021/09/25 12:52:41;;;;;;;15.95;11.88;;;;;;;;;;5021380;28;20485;-51
2021/09/25 12:55:10;;;;;;;15.25;9.40;;;;;;;;;;5020331;28;20334;-50
2021/09/25 12:57:36;;;;;;;24.10;17.42;;;;;;;;;;5020067;28;20052;-51
2021/09/25 13:00:07;;;;;;;17.15;12.00;;;;;;;;;;5020278;28;20059;-52
2021/09/25 13:02:33;;;;;;;31.20;21.47;;;;;;;;;;5021668;28;21668;-53
2021/09/25 13:05:02;;;;;;;10.93;7.07;;;;;;;;;;5020149;28;20839;-54
2021/09/25 13:07:29;;;;;;;62.63;41.50;;;;;;;;;;5019828;28;20037;-53
2021/09/25 13:09:56;;;;;;;39.17;24.75;;;;;;;;;;5020071;28;20022;-54
2021/09/25 13:12:27;;;;;;;77.65;51.75;;;;;;;;;;5019919;28;20733;-49
2021/09/25 13:15:08;;;;;;;13.70;7.75;;;;;;;;;;5020989;28;20091;-54
2021/09/25 13:17:35;;;;;;;31.92;19.40;;;;;;;;;;5020184;28;20083;-50
2021/09/25 13:20:03;;;;;;;24.77;15.65;;;;;;;;;;5020019;28;20021;-50
2021/09/25 13:22:29;;;;;;;34.05;22.88;;;;;;;;;;5021257;28;20063;-56
2021/09/25 13:24:57;;;;;;;35.38;20.55;;;;;;;;;;5021014;28;20076;-50
2021/09/25 13:27:23;;;;;;;49.75;31.17;;;;;;;;;;5021215;28;20095;-48
2021/09/25 13:29:49;;;;;;;9.60;7.63;;;;;;;;;;5022494;28;20145;-47
2021/09/25 13:32:15;;;;;;;25.92;18.73;;;;;;;;;;5020877;28;20500;-50
2021/09/25 13:34:41;;;;;;;10.85;6.18;;;;;;;;;;5020923;28;20025;-49
2021/09/25 13:37:08;;;;;;;23.75;14.70;;;;;;;;;;5021147;28;20220;-50
2021/09/25 13:39:35;;;;;;;18.45;6.53;;;;;;;;;;5020689;28;20025;-50
2021/09/25 13:42:01;;;;;;;15.55;8.80;;;;;;;;;;5021111;28;20645;-50
2021/09/25 13:44:27;;;;;;;55.33;37.05;;;;;;;;;;5021217;28;20162;-51
2021/09/25 13:46:53;;;;;;;43.08;30.38;;;;;;;;;;5022651;28;20025;-50
2021/09/25 13:49:19;;;;;;;42.70;25.52;;;;;;;;;;5024736;28;20033;-50
2021/09/25 13:51:45;;;;;;;20.77;13.07;;;;;;;;;;5024528;28;20022;-50
2021/09/25 13:54:12;;;;;;;40.47;26.52;;;;;;;;;;5025725;28;20036;-51
2021/09/25 13:56:38;;;;;;;8.95;5.72;;;;;;;;;;5024536;28;20411;-49
2021/09/25 13:59:04;;;;;;;41.88;24.17;;;;;;;;;;5024935;28;20036;-51
2021/09/25 14:01:30;;;;;;;35.75;22.42;;;;;;;;;;5025080;28;20021;-52
2021/09/25 14:03:57;;;;;;;97.25;63.92;;;;;;;;;;5024438;28;20551;-52
2021/09/25 14:06:23;;;;;;;56.03;41.50;;;;;;;;;;5024245;28;20117;-50
2021/09/25 14:08:49;;;;;;;33.08;20.98;;;;;;;;;;5024230;28;20132;-50
2021/09/25 14:11:16;;;;;;;20.10;12.50;;;;;;;;;;5024189;28;20026;-50
2021/09/25 14:13:42;;;;;;;5.78;3.58;;;;;;;;;;5024572;28;20451;-50
2021/09/25 14:16:13;;;;;;;5.55;3.97;;;;;;;;;;5024003;28;20025;-50
2021/09/25 14:18:39;;;;;;;;;;;;;;;;;;5023930;28;20025;-48
2021/09/25 14:21:05;;;;;;;22.45;11.82;;;;;;;;;;5023652;28;19971;-50
2021/09/25 14:23:31;;;;;;;7.22;3.47;;;;;;;;;;5023719;28;20098;-50
2021/09/25 14:25:58;;;;;;;16.92;9.63;;;;;;;;;;5023775;28;20021;-49